Time;durP1;ratioP1;P1;durP2;ratioP2;P2;SDS_P1;SDS_P2;PMS_P1;PMS_P2;Temp;Humidity;BMP_temperature;BMP_pressure;BME280_temperature;BME280_humidity;BME280_pressure;Samples;Min_cycle;Max_cycle;Signal;HPM_P1;HPM_P2
2023/03/05 00:00:08;;;;;;;89.18;21.42;;;;;;;;;;5074651;28;20201;-70
2023/03/05 00:02:37;;;;;;;88.20;21.25;;;;;;;;;;5074787;28;20583;-70
2023/03/05 00:05:04;;;;;;;89.53;23.02;;;;;;;;;;5074717;28;20301;-70
2023/03/05 00:07:31;;;;;;;94.35;22.80;;;;;;;;;;5074734;28;20707;-69
2023/03/05 00:09:59;;;;;;;96.03;21.50;;;;;;;;;;5074581;28;20695;-70
2023/03/05 00:12:26;;;;;;;90.78;21.50;;;;;;;;;;5074763;28;20231;-69
2023/03/05 00:14:53;;;;;;;89.50;23.30;;;;;;;;;;5074499;28;20211;-69
2023/03/05 00:17:20;;;;;;;95.22;23.65;;;;;;;;;;5074808;28;20572;-70
2023/03/05 00:19:49;;;;;;;91.65;20.92;;;;;;;;;;5074461;28;20627;-69
2023/03/05 00:22:16;;;;;;;87.93;22.33;;;;;;;;;;5074662;28;20205;-70
2023/03/05 00:24:43;;;;;;;91.05;22.42;;;;;;;;;;5074475;28;20704;-69
2023/03/05 00:27:10;;;;;;;93.68;21.58;;;;;;;;;;5074449;28;20231;-70
2023/03/05 00:29:37;;;;;;;89.85;22.70;;;;;;;;;;5073895;28;20244;-69
2023/03/05 00:32:04;;;;;;;89.00;21.95;;;;;;;;;;5074516;28;20205;-70
2023/03/05 00:34:32;;;;;;;93.55;23.33;;;;;;;;;;5074479;28;20211;-69
2023/03/05 00:37:00;;;;;;;88.15;19.85;;;;;;;;;;5074301;28;20236;-70
2023/03/05 00:39:27;;;;;;;93.93;21.70;;;;;;;;;;5074036;28;20292;-69
2023/03/05 00:41:54;;;;;;;89.10;22.25;;;;;;;;;;5074042;28;20262;-70
2023/03/05 00:44:22;;;;;;;90.70;22.13;;;;;;;;;;5074406;28;20212;-69
2023/03/05 00:46:50;;;;;;;89.25;23.38;;;;;;;;;;5074240;28;20225;-69
2023/03/05 00:49:17;;;;;;;95.65;23.63;;;;;;;;;;5073701;28;20225;-70
2023/03/05 00:51:44;;;;;;;88.38;22.83;;;;;;;;;;5074132;28;20205;-69
2023/03/05 00:54:12;;;;;;;89.63;21.33;;;;;;;;;;5074074;28;20596;-69
2023/03/05 00:56:39;;;;;;;92.97;21.13;;;;;;;;;;5073914;28;20232;-69
2023/03/05 00:59:07;;;;;;;99.28;24.45;;;;;;;;;;5073551;28;20208;-69
2023/03/05 01:01:34;;;;;;;97.30;23.08;;;;;;;;;;5073948;28;20205;-69
2023/03/05 01:04:01;;;;;;;91.18;21.65;;;;;;;;;;5073838;28;20282;-69
2023/03/05 01:06:28;;;;;;;89.55;21.38;;;;;;;;;;5073818;28;20311;-69
2023/03/05 01:08:56;;;;;;;90.10;22.73;;;;;;;;;;5073244;28;20316;-70
2023/03/05 01:11:24;;;;;;;89.47;21.15;;;;;;;;;;5073563;28;20271;-69
2023/03/05 01:13:52;;;;;;;93.85;23.45;;;;;;;;;;5073905;28;20212;-69
2023/03/05 01:16:19;;;;;;;88.28;20.02;;;;;;;;;;5073578;28;20229;-69
2023/03/05 01:18:46;;;;;;;88.65;22.45;;;;;;;;;;5073322;28;20197;-69
2023/03/05 01:21:13;;;;;;;90.05;23.20;;;;;;;;;;5073526;28;20201;-69
2023/03/05 01:23:40;;;;;;;92.03;21.00;;;;;;;;;;5073312;28;20212;-69
2023/03/05 01:26:08;;;;;;;96.45;24.25;;;;;;;;;;5073248;28;20259;-69
2023/03/05 01:28:37;;;;;;;94.57;22.55;;;;;;;;;;5073110;28;20759;-68
2023/03/05 01:31:07;;;;;;;97.78;22.60;;;;;;;;;;5073435;28;20201;-68
2023/03/05 01:33:34;;;;;;;95.95;22.85;;;;;;;;;;5073269;28;20212;-68
2023/03/05 01:36:01;;;;;;;87.72;21.40;;;;;;;;;;5073024;28;20621;-68
2023/03/05 01:38:28;;;;;;;96.82;25.33;;;;;;;;;;5072844;28;20205;-68
2023/03/05 01:40:55;;;;;;;95.78;24.60;;;;;;;;;;5073212;28;20207;-68
2023/03/05 01:43:24;;;;;;;94.07;26.73;;;;;;;;;;5072974;28;20688;-69
2023/03/05 01:46:10;;;;;;;94.00;24.63;;;;;;;;;;5073026;28;20221;-67
2023/03/05 01:48:38;;;;;;;94.60;23.52;;;;;;;;;;5071829;28;20224;-68
2023/03/05 01:51:05;;;;;;;91.88;22.30;;;;;;;;;;5072730;28;20216;-68
2023/03/05 01:53:32;;;;;;;94.80;24.67;;;;;;;;;;5072930;28;20647;-69
2023/03/05 01:56:00;;;;;;;90.75;21.45;;;;;;;;;;5073098;28;20225;-67
2023/03/05 01:58:27;;;;;;;94.63;20.30;;;;;;;;;;5072647;28;20690;-68
2023/03/05 02:00:55;;;;;;;87.43;21.98;;;;;;;;;;5072598;28;20228;-68
2023/03/05 02:03:23;;;;;;;91.60;21.65;;;;;;;;;;5072529;28;20589;-68
2023/03/05 02:05:52;;;;;;;91.60;21.05;;;;;;;;;;5072716;28;20225;-68
2023/03/05 02:08:20;;;;;;;90.40;20.45;;;;;;;;;;5072321;28;20213;-68
2023/03/05 02:10:49;;;;;;;88.72;19.92;;;;;;;;;;5072147;28;20205;-68
2023/03/05 02:13:18;;;;;;;94.07;20.75;;;;;;;;;;5072840;28;20201;-68
2023/03/05 02:15:46;;;;;;;88.28;21.85;;;;;;;;;;5072271;28;20221;-68
2023/03/05 02:18:13;;;;;;;95.90;21.73;;;;;;;;;;5072456;28;20205;-70
2023/03/05 02:20:45;;;;;;;93.32;22.85;;;;;;;;;;5072232;28;20201;-68
2023/03/05 02:23:14;;;;;;;86.57;18.80;;;;;;;;;;5072657;28;20217;-69
2023/03/05 02:25:41;;;;;;;91.25;19.63;;;;;;;;;;5072154;28;20615;-69
2023/03/05 02:28:09;;;;;;;98.43;23.92;;;;;;;;;;5072071;28;20201;-68
2023/03/05 02:30:37;;;;;;;89.38;18.75;;;;;;;;;;5071881;28;20205;-69
2023/03/05 02:33:05;;;;;;;94.55;21.70;;;;;;;;;;5072568;28;20209;-68
2023/03/05 02:35:32;;;;;;;94.68;19.80;;;;;;;;;;5072149;28;20255;-70
2023/03/05 02:37:59;;;;;;;95.15;21.27;;;;;;;;;;5071867;28;20696;-69
2023/03/05 02:40:28;;;;;;;90.20;20.98;;;;;;;;;;5071736;28;20201;-69
2023/03/05 02:42:55;;;;;;;91.60;21.75;;;;;;;;;;5071915;28;20212;-68
2023/03/05 02:45:22;;;;;;;90.65;20.92;;;;;;;;;;5071898;28;20231;-69
2023/03/05 02:47:49;;;;;;;95.10;23.42;;;;;;;;;;5072106;28;20211;-69
2023/03/05 02:50:16;;;;;;;91.80;20.50;;;;;;;;;;5071394;28;20231;-69
2023/03/05 02:52:44;;;;;;;92.00;21.50;;;;;;;;;;5072067;28;20211;-68
2023/03/05 02:55:11;;;;;;;90.75;20.85;;;;;;;;;;5070007;28;20213;-69
2023/03/05 02:57:39;;;;;;;89.53;21.48;;;;;;;;;;5071955;28;20205;-69
2023/03/05 03:00:08;;;;;;;90.68;20.85;;;;;;;;;;5070589;28;20205;-70
2023/03/05 03:02:35;;;;;;;98.53;23.30;;;;;;;;;;5071815;28;20212;-69
2023/03/05 03:05:02;;;;;;;99.35;22.30;;;;;;;;;;5071664;28;20292;-70
2023/03/05 03:07:29;;;;;;;89.57;20.88;;;;;;;;;;5071642;28;20673;-69
2023/03/05 03:09:57;;;;;;;88.10;21.15;;;;;;;;;;5071579;28;20235;-69
2023/03/05 03:12:24;;;;;;;97.57;23.33;;;;;;;;;;5071924;28;20580;-69
2023/03/05 03:14:52;;;;;;;88.20;20.52;;;;;;;;;;5071814;28;20201;-69
2023/03/05 03:17:19;;;;;;;92.68;21.95;;;;;;;;;;5071659;28;20209;-68
2023/03/05 03:19:46;;;;;;;89.78;21.58;;;;;;;;;;5071338;28;20704;-69
2023/03/05 03:22:14;;;;;;;88.38;20.42;;;;;;;;;;5072028;28;20205;-69
2023/03/05 03:24:42;;;;;;;88.28;20.98;;;;;;;;;;5071493;28;20217;-69
2023/03/05 03:27:09;;;;;;;94.63;21.23;;;;;;;;;;5071595;28;20228;-70
2023/03/05 03:29:36;;;;;;;92.18;21.73;;;;;;;;;;5071164;28;20705;-69
2023/03/05 03:32:05;;;;;;;93.43;20.50;;;;;;;;;;5071738;28;20208;-70
2023/03/05 03:34:32;;;;;;;101.30;22.13;;;;;;;;;;5071554;28;20700;-68
2023/03/05 03:36:59;;;;;;;92.03;22.30;;;;;;;;;;5071576;28;20225;-68
2023/03/05 03:39:26;;;;;;;95.15;23.20;;;;;;;;;;5071298;28;20205;-68
2023/03/05 03:41:53;;;;;;;97.60;21.73;;;;;;;;;;5071577;28;20210;-69
2023/03/05 03:44:22;;;;;;;92.63;21.65;;;;;;;;;;5071461;28;20748;-68
2023/03/05 03:46:50;;;;;;;96.38;21.92;;;;;;;;;;5071195;28;20235;-69
2023/03/05 03:49:19;;;;;;;96.85;22.88;;;;;;;;;;5071157;28;20225;-68
2023/03/05 03:51:47;;;;;;;93.03;23.75;;;;;;;;;;5071407;28;20205;-69
2023/03/05 03:54:14;;;;;;;97.05;23.45;;;;;;;;;;5071081;28;20197;-68
2023/03/05 03:56:41;;;;;;;91.18;21.65;;;;;;;;;;5071570;28;20228;-68
2023/03/05 03:59:08;;;;;;;94.88;22.42;;;;;;;;;;5070897;28;20212;-68
2023/03/05 04:01:36;;;;;;;92.88;21.70;;;;;;;;;;5071185;28;20205;-69
2023/03/05 04:04:03;;;;;;;89.97;21.35;;;;;;;;;;5071308;28;20210;-69
2023/03/05 04:06:32;;;;;;;89.22;20.90;;;;;;;;;;5070961;28;20617;-69
2023/03/05 04:08:59;;;;;;;96.15;22.30;;;;;;;;;;5070660;28;20202;-68
2023/03/05 04:11:26;;;;;;;93.78;23.42;;;;;;;;;;5073725;28;20209;-69
2023/03/05 04:13:53;;;;;;;94.45;22.00;;;;;;;;;;5074600;28;20217;-68
2023/03/05 04:16:20;;;;;;;91.07;22.90;;;;;;;;;;5074813;28;20221;-69
2023/03/05 04:18:48;;;;;;;93.93;21.90;;;;;;;;;;5074543;28;20588;-68
2023/03/05 04:21:15;;;;;;;93.88;23.02;;;;;;;;;;5074747;28;20681;-68
2023/03/05 04:23:44;;;;;;;96.95;21.83;;;;;;;;;;5074494;28;20216;-68
2023/03/05 04:26:11;;;;;;;92.85;22.50;;;;;;;;;;5074296;28;20240;-69
2023/03/05 04:28:38;;;;;;;93.72;21.58;;;;;;;;;;5074201;28;20205;-68
2023/03/05 04:31:05;;;;;;;91.53;22.50;;;;;;;;;;5074386;28;20228;-69
2023/03/05 04:33:32;;;;;;;91.78;22.58;;;;;;;;;;5074540;28;20212;-68
2023/03/05 04:35:59;;;;;;;91.07;22.77;;;;;;;;;;5074408;28;20237;-69
2023/03/05 04:38:27;;;;;;;102.60;22.65;;;;;;;;;;5074721;28;20202;-68
2023/03/05 04:40:55;;;;;;;95.50;23.65;;;;;;;;;;5074009;28;20560;-69
2023/03/05 04:43:22;;;;;;;94.68;21.60;;;;;;;;;;5074357;28;20201;-68
2023/03/05 04:45:49;;;;;;;90.22;21.52;;;;;;;;;;5074469;28;20231;-68
2023/03/05 04:48:17;;;;;;;95.40;23.52;;;;;;;;;;5074239;28;20605;-69
2023/03/05 04:50:44;;;;;;;92.63;22.52;;;;;;;;;;5073885;28;20262;-68
2023/03/05 04:53:11;;;;;;;92.85;21.23;;;;;;;;;;5074058;28;20208;-68
2023/03/05 04:55:39;;;;;;;92.85;21.23;;;;;;;;;;5073771;28;20748;-68
2023/03/05 04:58:07;;;;;;;92.20;22.08;;;;;;;;;;5074049;28;20227;-69
2023/03/05 05:00:34;;;;;;;98.20;22.88;;;;;;;;;;5073752;28;20213;-69
2023/03/05 05:03:01;;;;;;;91.90;22.00;;;;;;;;;;5074021;28;20308;-69
2023/03/05 05:05:29;;;;;;;94.38;24.17;;;;;;;;;;5073886;28;20709;-68
2023/03/05 05:07:56;;;;;;;94.25;21.73;;;;;;;;;;5073788;28;20205;-69
2023/03/05 05:10:24;;;;;;;90.70;22.50;;;;;;;;;;5073206;28;20230;-68
2023/03/05 05:12:51;;;;;;;97.25;22.77;;;;;;;;;;5073891;28;20201;-68
2023/03/05 05:15:20;;;;;;;94.63;21.00;;;;;;;;;;5073687;28;20235;-68
2023/03/05 05:17:47;;;;;;;94.32;23.30;;;;;;;;;;5073497;28;20220;-69
2023/03/05 05:20:15;;;;;;;92.78;21.50;;;;;;;;;;5073174;28;20205;-70
2023/03/05 05:22:42;;;;;;;87.90;20.85;;;;;;;;;;5072369;28;20582;-70
2023/03/05 05:25:10;;;;;;;90.15;22.13;;;;;;;;;;5073351;28;20219;-69
2023/03/05 05:27:37;;;;;;;91.05;20.55;;;;;;;;;;5073628;28;20630;-69
2023/03/05 05:30:05;;;;;;;93.82;21.05;;;;;;;;;;5072980;28;20248;-70
2023/03/05 05:32:33;;;;;;;91.72;21.45;;;;;;;;;;5073319;28;20209;-68
2023/03/05 05:35:00;;;;;;;100.40;22.80;;;;;;;;;;5073293;28;20208;-69
2023/03/05 05:37:28;;;;;;;90.05;22.02;;;;;;;;;;5073222;28;20295;-68
2023/03/05 05:39:55;;;;;;;111.68;22.88;;;;;;;;;;5072801;28;20205;-68
2023/03/05 05:42:23;;;;;;;95.43;22.60;;;;;;;;;;5073053;28;20209;-68
2023/03/05 05:44:51;;;;;;;94.13;22.75;;;;;;;;;;5073119;28;20205;-68
2023/03/05 05:47:18;;;;;;;94.13;22.88;;;;;;;;;;5073110;28;20209;-69
2023/03/05 05:49:47;;;;;;;94.15;22.77;;;;;;;;;;5072398;28;20236;-68
2023/03/05 05:52:15;;;;;;;90.10;23.20;;;;;;;;;;5073058;28;20211;-68
2023/03/05 05:54:42;;;;;;;89.15;21.45;;;;;;;;;;5072969;28;20205;-68
2023/03/05 05:57:09;;;;;;;89.05;21.80;;;;;;;;;;5072653;28;20245;-69
2023/03/05 05:59:37;;;;;;;91.72;21.27;;;;;;;;;;5072305;28;20254;-68
2023/03/05 06:02:04;;;;;;;94.63;22.02;;;;;;;;;;5072650;28;20239;-69
2023/03/05 06:04:31;;;;;;;92.93;21.40;;;;;;;;;;5073360;28;20215;-68
2023/03/05 06:07:00;;;;;;;94.97;23.08;;;;;;;;;;5073213;28;20602;-69
2023/03/05 06:09:27;;;;;;;91.13;21.92;;;;;;;;;;5072229;28;20205;-68
2023/03/05 06:11:54;;;;;;;100.45;24.10;;;;;;;;;;5072588;28;20206;-69
2023/03/05 06:14:22;;;;;;;90.78;22.00;;;;;;;;;;5072578;28;20241;-70
2023/03/05 06:16:49;;;;;;;91.95;22.50;;;;;;;;;;5072250;28;20232;-69
2023/03/05 06:19:16;;;;;;;93.50;22.95;;;;;;;;;;5071980;28;20211;-70
2023/03/05 06:21:44;;;;;;;93.60;22.98;;;;;;;;;;5072452;28;20211;-70
2023/03/05 06:24:12;;;;;;;101.55;23.52;;;;;;;;;;5072351;28;20216;-69
2023/03/05 06:26:39;;;;;;;94.78;22.80;;;;;;;;;;5072204;28;20243;-69
2023/03/05 06:29:06;;;;;;;86.68;20.73;;;;;;;;;;5071868;28;20207;-69
2023/03/05 06:31:33;;;;;;;90.25;21.33;;;;;;;;;;5072024;28;20228;-69
2023/03/05 06:34:01;;;;;;;87.65;21.42;;;;;;;;;;5072099;28;20206;-69
2023/03/05 06:36:28;;;;;;;99.60;23.92;;;;;;;;;;5072200;28;20232;-70
2023/03/05 06:38:55;;;;;;;94.03;23.90;;;;;;;;;;5071745;28;20207;-69
2023/03/05 06:41:26;;;;;;;100.20;23.77;;;;;;;;;;5072207;28;20205;-69
2023/03/05 06:43:53;;;;;;;91.43;21.48;;;;;;;;;;5072073;28;20205;-69
2023/03/05 06:46:21;;;;;;;96.95;22.35;;;;;;;;;;5072109;28;20227;-69
2023/03/05 06:48:48;;;;;;;82.68;19.88;;;;;;;;;;5071717;28;20205;-69
2023/03/05 06:51:16;;;;;;;94.68;22.63;;;;;;;;;;5072014;28;20255;-69
2023/03/05 06:53:43;;;;;;;92.40;22.05;;;;;;;;;;5072054;28;20575;-69
2023/03/05 06:56:10;;;;;;;90.45;22.40;;;;;;;;;;5071789;28;20225;-69
2023/03/05 06:58:38;;;;;;;89.85;21.77;;;;;;;;;;5071417;28;20216;-69
2023/03/05 07:01:06;;;;;;;98.07;22.60;;;;;;;;;;5072089;28;20223;-69
2023/03/05 07:03:33;;;;;;;88.15;20.52;;;;;;;;;;5071944;28;20205;-69
2023/03/05 07:06:02;;;;;;;96.93;22.77;;;;;;;;;;5071576;28;20624;-69
2023/03/05 07:08:29;;;;;;;93.18;22.33;;;;;;;;;;5071471;28;20202;-71
2023/03/05 07:10:56;;;;;;;92.38;21.83;;;;;;;;;;5071426;28;20221;-69
2023/03/05 07:13:24;;;;;;;99.00;23.48;;;;;;;;;;5071912;28;20228;-69
2023/03/05 07:15:52;;;;;;;85.78;19.42;;;;;;;;;;5071668;28;20227;-69
2023/03/05 07:18:19;;;;;;;92.22;21.55;;;;;;;;;;5071588;28;20205;-70
2023/03/05 07:20:46;;;;;;;89.45;20.65;;;;;;;;;;5071451;28;20197;-68
2023/03/05 07:23:13;;;;;;;86.18;20.25;;;;;;;;;;5071521;28;20669;-70
2023/03/05 07:25:40;;;;;;;92.30;20.05;;;;;;;;;;5071293;28;20239;-69
2023/03/05 07:28:09;;;;;;;90.65;21.10;;;;;;;;;;5071377;28;20215;-70
2023/03/05 07:30:36;;;;;;;94.25;23.55;;;;;;;;;;5071291;28;20224;-69
2023/03/05 07:33:05;;;;;;;90.32;19.77;;;;;;;;;;5071372;28;20206;-69
2023/03/05 07:35:32;;;;;;;88.05;20.95;;;;;;;;;;5071347;28;20221;-69
2023/03/05 07:37:59;;;;;;;86.78;19.58;;;;;;;;;;5071270;28;20209;-68
2023/03/05 07:40:26;;;;;;;90.85;20.60;;;;;;;;;;5071122;28;20697;-70
2023/03/05 07:42:53;;;;;;;89.00;21.58;;;;;;;;;;5071545;28;20201;-69
2023/03/05 07:45:20;;;;;;;88.30;21.33;;;;;;;;;;5072360;28;20225;-70
2023/03/05 07:47:47;;;;;;;88.93;22.15;;;;;;;;;;5075383;28;20209;-69
2023/03/05 07:50:16;;;;;;;91.40;20.13;;;;;;;;;;5074860;28;20225;-70
2023/03/05 07:52:43;;;;;;;90.20;22.15;;;;;;;;;;5074950;28;20205;-69
2023/03/05 07:55:11;;;;;;;91.00;20.80;;;;;;;;;;5075385;28;20231;-70
2023/03/05 07:57:38;;;;;;;85.78;19.60;;;;;;;;;;5075359;28;20287;-69
2023/03/05 08:00:06;;;;;;;86.97;20.55;;;;;;;;;;5074758;28;20209;-69
2023/03/05 08:02:33;;;;;;;87.03;18.23;;;;;;;;;;5074910;28;20688;-68
2023/03/05 08:05:00;;;;;;;86.20;17.50;;;;;;;;;;5074803;28;20216;-69
2023/03/05 08:07:28;;;;;;;87.35;18.00;;;;;;;;;;5074836;28;20205;-69
2023/03/05 08:09:56;;;;;;;82.03;16.23;;;;;;;;;;5074558;28;20211;-69
2023/03/05 08:12:23;;;;;;;82.57;16.25;;;;;;;;;;5074890;28;20581;-69
2023/03/05 08:14:51;;;;;;;79.40;15.02;;;;;;;;;;5074663;28;20741;-69
2023/03/05 08:17:18;;;;;;;79.63;16.02;;;;;;;;;;5074829;28;20209;-69
2023/03/05 08:19:45;;;;;;;78.75;15.75;;;;;;;;;;5074196;28;20588;-69
2023/03/05 08:22:14;;;;;;;83.30;16.38;;;;;;;;;;5074822;28;20203;-69
2023/03/05 08:24:43;;;;;;;78.40;15.05;;;;;;;;;;5074669;28;20219;-69
2023/03/05 08:27:10;;;;;;;76.53;15.13;;;;;;;;;;5074461;28;20724;-69
2023/03/05 08:29:37;;;;;;;75.00;14.68;;;;;;;;;;5074153;28;20458;-69
2023/03/05 08:32:05;;;;;;;84.55;15.23;;;;;;;;;;5074426;28;20255;-69
2023/03/05 08:34:32;;;;;;;81.80;15.93;;;;;;;;;;5074982;28;20213;-69
2023/03/05 08:36:59;;;;;;;79.78;15.68;;;;;;;;;;5074279;28;20221;-69
2023/03/05 08:39:26;;;;;;;79.93;14.67;;;;;;;;;;5074131;28;20671;-69
2023/03/05 08:41:55;;;;;;;80.47;14.00;;;;;;;;;;5074218;28;20509;-70
2023/03/05 08:44:22;;;;;;;79.00;14.02;;;;;;;;;;5074410;28;20940;-69
2023/03/05 08:46:49;;;;;;;76.72;12.88;;;;;;;;;;5073990;28;20225;-69
2023/03/05 08:49:16;;;;;;;78.82;13.00;;;;;;;;;;5073693;28;20209;-70
2023/03/05 08:51:43;;;;;;;73.87;13.73;;;;;;;;;;5074320;28;20240;-69
2023/03/05 08:54:10;;;;;;;76.70;13.80;;;;;;;;;;5074325;28;20446;-69
2023/03/05 08:56:37;;;;;;;79.28;13.82;;;;;;;;;;5074050;28;20233;-68
2023/03/05 08:59:07;;;;;;;76.18;14.30;;;;;;;;;;5073660;28;20211;-69
2023/03/05 09:01:34;;;;;;;80.13;14.95;;;;;;;;;;5073775;28;20204;-70
2023/03/05 09:04:02;;;;;;;83.47;14.93;;;;;;;;;;5074248;28;20211;-69
2023/03/05 09:06:30;;;;;;;74.83;12.97;;;;;;;;;;5073888;28;20529;-69
2023/03/05 09:08:57;;;;;;;79.40;15.47;;;;;;;;;;5073308;28;20452;-69
2023/03/05 09:11:24;;;;;;;75.47;12.00;;;;;;;;;;5073721;28;20491;-69
2023/03/05 09:13:51;;;;;;;77.70;14.63;;;;;;;;;;5073578;28;20944;-70
2023/03/05 09:16:20;;;;;;;84.40;15.97;;;;;;;;;;5073475;28;20474;-69
2023/03/05 09:18:47;;;;;;;80.47;14.47;;;;;;;;;;5073170;28;20447;-69
2023/03/05 09:21:15;;;;;;;78.80;14.40;;;;;;;;;;5073663;28;20450;-69
2023/03/05 09:23:42;;;;;;;78.20;14.13;;;;;;;;;;5073741;28;20458;-68
2023/03/05 09:26:12;;;;;;;81.83;14.53;;;;;;;;;;5073211;28;20479;-69
2023/03/05 09:28:39;;;;;;;74.40;12.20;;;;;;;;;;5072836;28;20546;-70
2023/03/05 09:31:07;;;;;;;76.77;12.73;;;;;;;;;;5073517;28;20491;-69
2023/03/05 09:33:35;;;;;;;78.00;12.67;;;;;;;;;;5073404;28;20878;-69
2023/03/05 09:36:03;;;;;;;82.03;14.03;;;;;;;;;;5073230;28;20474;-68
2023/03/05 09:38:30;;;;;;;75.10;12.40;;;;;;;;;;5073208;28;20538;-69
2023/03/05 09:41:02;;;;;;;79.37;14.07;;;;;;;;;;5073112;28;20458;-69
2023/03/05 09:43:38;;;;;;;76.10;12.73;;;;;;;;;;5073192;28;20944;-68
2023/03/05 09:46:10;;;;;;;73.10;12.83;;;;;;;;;;5073793;28;20553;-70
2023/03/05 09:48:44;;;;;;;80.90;12.83;;;;;;;;;;5072702;28;20448;-69
2023/03/05 09:51:14;;;;;;;78.57;14.10;;;;;;;;;;5073248;28;20481;-70
2023/03/05 09:53:45;;;;;;;77.10;14.60;;;;;;;;;;5072753;28;20451;-70
2023/03/05 09:56:14;;;;;;;79.73;14.10;;;;;;;;;;5073046;28;20229;-69
2023/03/05 09:58:43;;;;;;;76.13;13.30;;;;;;;;;;5072501;28;20951;-69
2023/03/05 10:01:11;;;;;;;78.63;14.40;;;;;;;;;;5072738;28;20829;-70
2023/03/05 10:03:45;;;;;;;77.70;13.80;;;;;;;;;;5072617;28;20447;-70
2023/03/05 10:06:17;;;;;;;77.30;12.50;;;;;;;;;;5072573;28;20469;-70
2023/03/05 10:08:52;;;;;;;82.37;15.87;;;;;;;;;;5072214;28;20448;-70
2023/03/05 10:11:25;;;;;;;74.20;13.70;;;;;;;;;;5072625;28;20486;-70
2023/03/05 10:13:52;;;;;;;81.87;15.47;;;;;;;;;;5072588;28;20453;-69
2023/03/05 10:16:32;;;;;;;74.63;12.23;;;;;;;;;;5072329;28;20472;-69
2023/03/05 10:19:05;;;;;;;81.40;13.57;;;;;;;;;;5072279;28;20451;-70
2023/03/05 10:21:37;;;;;;;73.30;13.33;;;;;;;;;;5072584;28;20451;-70
2023/03/05 10:24:08;;;;;;;77.77;14.90;;;;;;;;;;5072258;28;20451;-70
2023/03/05 10:26:55;;;;;;;79.27;15.60;;;;;;;;;;5072421;28;20467;-69
2023/03/05 10:29:38;;;;;;;83.70;14.50;;;;;;;;;;5067128;28;20456;-70
2023/03/05 10:32:12;;;;;;;77.67;15.73;;;;;;;;;;5072220;28;20243;-69
2023/03/05 10:34:52;;;;;;;78.57;14.43;;;;;;;;;;5072527;28;20446;-70
2023/03/05 10:37:28;;;;;;;78.87;14.47;;;;;;;;;;5071935;28;20951;-70
2023/03/05 10:40:01;;;;;;;75.83;14.57;;;;;;;;;;5071948;28;20451;-70
2023/03/05 10:42:34;;;;;;;82.50;14.73;;;;;;;;;;5072290;28;20443;-69
2023/03/05 10:45:09;;;;;;;78.40;15.20;;;;;;;;;;5072272;28;20533;-70
2023/03/05 10:47:42;;;;;;;81.07;15.73;;;;;;;;;;5071927;28;20447;-70
2023/03/05 10:50:16;;;;;;;78.87;14.33;;;;;;;;;;5071780;28;20453;-71
2023/03/05 10:52:45;;;;;;;78.60;13.60;;;;;;;;;;5072104;28;20483;-70
2023/03/05 10:55:15;;;;;;;78.70;13.83;;;;;;;;;;5071739;28;20455;-69
2023/03/05 10:57:42;;;;;;;75.00;14.07;;;;;;;;;;5071805;28;20970;-69
2023/03/05 11:00:18;;;;;;;79.77;16.60;;;;;;;;;;5071483;28;20451;-70
2023/03/05 11:03:02;;;;;;;77.30;14.53;;;;;;;;;;5072011;28;20449;-69
2023/03/05 11:05:47;;;;;;;76.23;14.20;;;;;;;;;;5071830;28;20819;-69
2023/03/05 11:08:23;;;;;;;82.93;15.70;;;;;;;;;;5071851;28;20825;-70
2023/03/05 11:11:02;;;;;;;83.03;14.67;;;;;;;;;;5071491;28;20450;-70
2023/03/05 11:13:29;;;;;;;76.80;14.63;;;;;;;;;;5071860;28;20530;-70
2023/03/05 11:16:00;;;;;;;80.97;16.27;;;;;;;;;;5071667;28;20462;-70
2023/03/05 11:18:30;;;;;;;80.67;14.47;;;;;;;;;;5071504;28;20453;-69
2023/03/05 11:21:07;;;;;;;80.73;16.20;;;;;;;;;;5073653;28;20455;-69
2023/03/05 11:23:34;;;;;;;74.93;14.23;;;;;;;;;;5076131;28;20435;-70
2023/03/05 11:26:02;;;;;;;79.93;16.17;;;;;;;;;;5075521;28;20474;-69
2023/03/05 11:28:34;;;;;;;79.20;16.80;;;;;;;;;;5075665;28;20443;-70
2023/03/05 11:31:03;;;;;;;77.80;15.70;;;;;;;;;;5075910;28;20443;-68
2023/03/05 11:33:31;;;;;;;76.97;14.70;;;;;;;;;;5075479;28;20841;-69
2023/03/05 11:36:21;;;;;;;81.27;16.87;;;;;;;;;;5075783;28;20517;-70
2023/03/05 11:38:51;;;;;;;78.47;15.70;;;;;;;;;;5075360;28;20477;-70
2023/03/05 11:41:21;;;;;;;82.37;16.23;;;;;;;;;;5075474;28;21026;-69
2023/03/05 11:43:48;;;;;;;84.60;17.47;;;;;;;;;;5075412;28;20455;-69
2023/03/05 11:46:17;;;;;;;77.40;14.87;;;;;;;;;;5074996;28;20467;-69
2023/03/05 11:48:45;;;;;;;76.93;16.47;;;;;;;;;;5074563;28;20454;-69
2023/03/05 11:51:17;;;;;;;82.90;16.77;;;;;;;;;;5074571;28;20451;-70
2023/03/05 11:53:45;;;;;;;81.33;16.67;;;;;;;;;;5075457;28;20447;-69
2023/03/05 11:56:17;;;;;;;82.10;17.80;;;;;;;;;;5075108;28;20468;-69
2023/03/05 11:58:47;;;;;;;77.53;16.83;;;;;;;;;;5075056;28;20447;-69
2023/03/05 12:01:15;;;;;;;79.93;15.70;;;;;;;;;;5075258;28;20447;-69
2023/03/05 12:03:43;;;;;;;80.27;16.10;;;;;;;;;;5074654;28;20447;-69
2023/03/05 12:06:13;;;;;;;80.03;16.27;;;;;;;;;;5074809;28;20479;-69
2023/03/05 12:08:45;;;;;;;75.50;15.20;;;;;;;;;;5074607;28;20443;-69
2023/03/05 12:11:16;;;;;;;81.60;16.90;;;;;;;;;;5075185;28;20441;-69
2023/03/05 12:13:44;;;;;;;77.53;13.67;;;;;;;;;;5074798;28;20442;-69
2023/03/05 12:16:18;;;;;;;78.30;14.67;;;;;;;;;;5074819;28;20473;-70
2023/03/05 12:18:51;;;;;;;79.97;14.17;;;;;;;;;;5074571;28;20500;-69
2023/03/05 12:21:24;;;;;;;75.10;13.70;;;;;;;;;;5074690;28;20443;-69
2023/03/05 12:23:54;;;;;;;75.07;13.20;;;;;;;;;;5074592;28;20966;-70
2023/03/05 12:26:54;;;;;;;77.97;15.03;;;;;;;;;;5074695;28;20467;-69
2023/03/05 12:29:27;;;;;;;79.50;16.00;;;;;;;;;;5074183;28;20830;-70
2023/03/05 12:31:55;;;;;;;77.10;14.80;;;;;;;;;;5073929;28;20479;-69
2023/03/05 12:34:41;;;;;;;77.40;15.13;;;;;;;;;;5074782;28;20447;-70
2023/03/05 12:37:11;;;;;;;80.73;16.27;;;;;;;;;;5074476;28;20478;-71
2023/03/05 12:39:48;;;;;;;78.90;15.43;;;;;;;;;;5074089;28;20831;-70
2023/03/05 12:42:34;;;;;;;89.07;15.93;;;;;;;;;;5074170;28;20453;-69
2023/03/05 12:45:18;;;;;;;81.30;15.20;;;;;;;;;;5074477;28;20474;-70
2023/03/05 12:47:45;;;;;;;78.67;16.63;;;;;;;;;;5062365;28;20513;-69
2023/03/05 12:50:27;;;;;;;76.90;15.80;;;;;;;;;;5073848;28;20443;-70
2023/03/05 12:52:55;;;;;;;78.90;15.03;;;;;;;;;;5074047;28;20576;-70
2023/03/05 12:55:25;;;;;;;79.67;15.17;;;;;;;;;;5074190;28;20834;-69
2023/03/05 12:57:53;;;;;;;77.20;15.60;;;;;;;;;;5074154;28;20458;-70
2023/03/05 13:00:25;;;;;;;79.30;16.53;;;;;;;;;;5073818;28;20450;-70
2023/03/05 13:02:56;;;;;;;82.67;16.93;;;;;;;;;;5074037;28;20448;-70
2023/03/05 13:05:26;;;;;;;81.23;17.37;;;;;;;;;;5073819;28;20514;-69
2023/03/05 13:07:53;;;;;;;82.83;16.70;;;;;;;;;;5073770;28;20452;-70
2023/03/05 13:10:27;;;;;;;83.57;16.10;;;;;;;;;;5073814;28;20825;-69
2023/03/05 13:12:55;;;;;;;76.57;15.63;;;;;;;;;;5073757;28;20849;-70
2023/03/05 13:15:23;;;;;;;84.90;17.30;;;;;;;;;;5073740;28;20467;-70
2023/03/05 13:17:52;;;;;;;76.50;14.90;;;;;;;;;;5073591;28;20462;-69
2023/03/05 13:20:27;;;;;;;78.67;16.13;;;;;;;;;;5073709;28;20447;-69
2023/03/05 13:23:19;;;;;;;77.30;14.97;;;;;;;;;;5073460;28;20435;-69
2023/03/05 13:25:57;;;;;;;80.00;16.93;;;;;;;;;;5058513;28;20543;-69
2023/03/05 13:28:24;;;;;;;77.80;15.97;;;;;;;;;;5073560;28;20525;-69
2023/03/05 13:30:52;;;;;;;80.30;17.33;;;;;;;;;;5073292;28;21068;-69
2023/03/05 13:33:20;;;;;;;76.10;15.90;;;;;;;;;;5073285;28;20483;-70
2023/03/05 13:35:48;;;;;;;79.13;16.60;;;;;;;;;;5073249;28;20468;-70
2023/03/05 13:38:21;;;;;;;79.13;16.87;;;;;;;;;;5073112;28;20444;-69
2023/03/05 13:41:03;;;;;;;76.83;15.97;;;;;;;;;;5072906;28;20828;-69
2023/03/05 13:43:30;;;;;;;74.47;14.47;;;;;;;;;;5072411;28;20447;-70
2023/03/05 13:45:58;;;;;;;78.20;15.20;;;;;;;;;;5072993;28;20463;-69
2023/03/05 13:48:26;;;;;;;78.77;14.40;;;;;;;;;;5072996;28;20959;-69
2023/03/05 13:50:54;;;;;;;78.17;14.50;;;;;;;;;;5072766;28;20932;-69
2023/03/05 13:53:23;;;;;;;72.93;14.80;;;;;;;;;;5072836;28;20484;-69
2023/03/05 13:55:51;;;;;;;76.10;14.67;;;;;;;;;;5072925;28;20472;-69
2023/03/05 13:58:37;;;;;;;75.23;14.77;;;;;;;;;;5072965;28;20448;-69
2023/03/05 14:01:12;;;;;;;75.90;13.93;;;;;;;;;;5072789;28;20466;-70
2023/03/05 14:03:39;;;;;;;74.97;13.90;;;;;;;;;;5072660;28;20457;-69
2023/03/05 14:06:09;;;;;;;72.70;13.30;;;;;;;;;;5072886;28;20463;-69
2023/03/05 14:08:36;;;;;;;75.97;14.20;;;;;;;;;;5072521;28;20447;-69
2023/03/05 14:11:12;;;;;;;71.90;13.40;;;;;;;;;;5072540;28;20447;-69
2023/03/05 14:13:39;;;;;;;71.97;12.67;;;;;;;;;;5072500;28;20502;-69
2023/03/05 14:16:08;;;;;;;79.87;13.67;;;;;;;;;;5072334;28;20470;-69
2023/03/05 14:18:36;;;;;;;70.57;11.90;;;;;;;;;;5072263;28;20453;-69
2023/03/05 14:21:06;;;;;;;76.87;13.40;;;;;;;;;;5072769;28;20592;-68
2023/03/05 14:23:41;;;;;;;69.97;11.80;;;;;;;;;;5072799;28;20447;-69
2023/03/05 14:26:18;;;;;;;71.77;12.57;;;;;;;;;;5072129;28;20483;-69